Time;durP1;ratioP1;P1;durP2;ratioP2;P2;SDS_P1;SDS_P2;PMS_P1;PMS_P2;Temp;Humidity;BMP_temperature;BMP_pressure;BME280_temperature;BME280_humidity;BME280_pressure;Samples;Min_cycle;Max_cycle;Signal;HPM_P1;HPM_P2
2022/03/29 00:01:26;;;;;;;1.03;0.87;;;20.70;99.90;;;;;;5071810;28;20233;-70
2022/03/29 00:03:54;;;;;;;2.57;0.67;;;20.70;99.90;;;;;;5071859;28;20207;-70
2022/03/29 00:06:22;;;;;;;2.47;0.70;;;20.70;99.90;;;;;;5071707;28;20643;-70
2022/03/29 00:08:50;;;;;;;3.90;0.93;;;20.60;99.90;;;;;;5071563;28;20679;-69
2022/03/29 00:11:18;;;;;;;4.33;0.60;;;20.60;99.90;;;;;;5071629;28;20183;-69
2022/03/29 00:13:46;;;;;;;1.23;0.70;;;20.70;99.90;;;;;;5071311;28;20226;-69
2022/03/29 00:16:13;;;;;;;1.03;0.67;;;20.70;99.90;;;;;;5071065;28;20204;-69
2022/03/29 00:18:40;;;;;;;1.70;0.90;;;20.70;99.90;;;;;;5070452;28;20692;-70
2022/03/29 00:21:07;;;;;;;2.30;0.80;;;20.80;99.90;;;;;;5071903;28;20549;-70
2022/03/29 00:23:35;;;;;;;0.57;0.40;;;20.80;99.90;;;;;;5071863;28;20180;-70
2022/03/29 00:26:03;;;;;;;1.87;0.90;;;20.80;99.90;;;;;;5071351;28;20175;-68
2022/03/29 00:28:30;;;;;;;2.17;0.50;;;20.90;99.90;;;;;;5071615;28;20645;-68
2022/03/29 00:30:57;;;;;;;3.27;0.70;;;20.90;99.90;;;;;;5071962;28;20224;-69
2022/03/29 00:33:25;;;;;;;1.03;0.40;;;21.00;99.90;;;;;;5071813;28;20179;-68
2022/03/29 00:35:52;;;;;;;2.43;0.50;;;20.90;99.90;;;;;;5070802;28;20557;-69
2022/03/29 00:38:20;;;;;;;0.73;0.40;;;20.90;99.90;;;;;;5071835;28;20182;-68
2022/03/29 00:40:47;;;;;;;2.03;0.40;;;21.00;99.90;;;;;;5070343;28;20176;-69
2022/03/29 00:43:14;;;;;;;1.30;0.53;;;21.00;99.90;;;;;;5070279;28;20546;-70
2022/03/29 00:45:43;;;;;;;1.77;0.60;;;21.10;99.90;;;;;;5069506;28;20192;-70
2022/03/29 00:48:11;;;;;;;2.10;0.50;;;21.20;99.90;;;;;;5071066;28;20645;-71
2022/03/29 00:50:39;;;;;;;1.80;0.70;;;21.20;99.90;;;;;;5070290;28;20532;-70
2022/03/29 00:53:08;;;;;;;6.23;1.33;;;21.30;99.90;;;;;;5070171;28;20188;-69
2022/03/29 00:55:36;;;;;;;0.93;0.40;;;21.10;99.90;;;;;;5070008;28;20190;-69
2022/03/29 00:58:06;;;;;;;1.70;0.40;;;21.10;99.90;;;;;;5070662;28;20209;-69
2022/03/29 01:00:35;;;;;;;0.93;0.70;;;21.10;99.90;;;;;;5071776;28;20178;-68
2022/03/29 01:03:03;;;;;;;3.60;0.60;;;21.20;99.90;;;;;;5071172;28;20620;-68
2022/03/29 01:05:31;;;;;;;1.33;0.60;;;21.30;99.90;;;;;;5071769;28;20172;-69
2022/03/29 01:08:00;;;;;;;2.13;0.77;;;21.40;99.90;;;;;;5071494;28;20176;-69
2022/03/29 01:10:28;;;;;;;2.00;0.60;;;21.10;99.90;;;;;;5071417;28;20272;-67
2022/03/29 01:12:56;;;;;;;3.63;0.90;;;21.10;99.90;;;;;;5071172;28;20175;-68
2022/03/29 01:15:28;;;;;;;0.77;0.40;;;21.20;99.90;;;;;;5071028;28;20273;-69
2022/03/29 01:17:58;;;;;;;1.27;0.53;;;21.00;99.90;;;;;;5071370;28;20243;-68
2022/03/29 01:20:28;;;;;;;0.90;0.67;;;21.10;99.90;;;;;;5071273;28;20560;-69
2022/03/29 01:22:57;;;;;;;1.33;0.50;;;21.10;99.90;;;;;;5071278;28;20191;-70
2022/03/29 01:25:32;;;;;;;1.90;0.53;;;21.20;99.90;;;;;;5071330;28;20174;-70
2022/03/29 01:28:01;;;;;;;1.90;0.60;;;21.20;99.90;;;;;;5071405;28;20179;-70
2022/03/29 01:30:29;;;;;;;0.87;0.53;;;21.10;99.90;;;;;;5070943;28;20658;-70
2022/03/29 01:32:59;;;;;;;2.77;0.73;;;21.20;99.90;;;;;;5071122;28;20177;-68
2022/03/29 01:35:27;;;;;;;2.80;0.50;;;21.20;99.90;;;;;;5071154;28;20172;-70
2022/03/29 01:37:56;;;;;;;2.00;0.50;;;21.30;99.90;;;;;;5069905;28;20311;-70
2022/03/29 01:40:28;;;;;;;0.60;0.40;;;21.30;99.90;;;;;;5071415;28;20172;-70
2022/03/29 01:42:59;;;;;;;1.77;0.80;;;21.30;99.90;;;;;;5071033;28;20186;-70
2022/03/29 01:45:30;;;;;;;1.93;0.67;;;21.50;99.90;;;;;;5071329;28;20180;-69
2022/03/29 01:47:57;;;;;;;0.43;0.43;;;21.70;99.90;;;;;;5074921;28;20179;-69
2022/03/29 01:50:25;;;;;;;1.93;1.00;;;21.60;99.90;;;;;;5074623;28;20267;-69
2022/03/29 01:52:53;;;;;;;1.97;0.67;;;21.70;99.90;;;;;;5073279;28;20183;-69
2022/03/29 01:55:22;;;;;;;0.60;0.50;;;21.80;99.90;;;;;;5074772;28;20204;-69
2022/03/29 01:57:53;;;;;;;0.83;0.50;;;21.90;99.90;;;;;;5074560;28;20321;-70
2022/03/29 02:00:38;;;;;;;1.20;0.50;;;21.70;99.90;;;;;;5074706;28;20204;-69
2022/03/29 02:03:07;;;;;;;3.03;0.70;;;21.70;99.90;;;;;;5073960;28;20417;-70
2022/03/29 02:05:37;;;;;;;1.33;0.63;;;21.70;99.90;;;;;;5074369;28;20191;-69
2022/03/29 02:08:05;;;;;;;0.80;0.40;;;21.60;99.90;;;;;;5074539;28;20273;-70
2022/03/29 02:10:33;;;;;;;2.77;0.30;;;21.50;99.90;;;;;;5074397;28;20204;-69
2022/03/29 02:13:01;;;;;;;0.60;0.50;;;21.50;99.90;;;;;;5074132;28;20255;-69
2022/03/29 02:15:29;;;;;;;2.13;0.50;;;21.50;99.90;;;;;;5074096;28;20650;-70
2022/03/29 02:17:57;;;;;;;2.47;0.50;;;21.60;99.90;;;;;;5072785;28;20215;-70
2022/03/29 02:20:26;;;;;;;2.43;0.30;;;21.60;99.90;;;;;;5074351;28;20557;-70
2022/03/29 02:22:53;;;;;;;1.30;0.70;;;21.70;99.90;;;;;;5073954;28;20723;-70
2022/03/29 02:25:21;;;;;;;0.87;0.40;;;21.90;99.90;;;;;;5074247;28;20631;-68
2022/03/29 02:27:49;;;;;;;0.63;0.40;;;21.90;99.90;;;;;;5074180;28;20180;-69
2022/03/29 02:30:19;;;;;;;3.40;0.50;;;21.90;99.90;;;;;;5074128;28;20242;-69
2022/03/29 02:32:47;;;;;;;0.50;0.30;;;22.00;99.90;;;;;;5073793;28;20199;-69
2022/03/29 02:35:15;;;;;;;1.47;0.30;;;22.00;99.90;;;;;;5074016;28;20262;-69
2022/03/29 02:37:43;;;;;;;0.53;0.30;;;21.80;99.90;;;;;;5072192;28;20223;-70
2022/03/29 02:40:13;;;;;;;1.00;0.50;;;22.00;99.90;;;;;;5073617;28;20183;-69
2022/03/29 02:42:48;;;;;;;2.33;0.40;;;22.00;99.90;;;;;;5073951;28;20663;-69
2022/03/29 02:45:18;;;;;;;1.17;0.60;;;22.10;99.90;;;;;;5073729;28;20183;-69
2022/03/29 02:47:48;;;;;;;5.73;0.50;;;22.00;99.90;;;;;;5073381;28;20187;-70
2022/03/29 02:50:17;;;;;;;1.90;0.73;;;21.90;99.90;;;;;;5073336;28;20187;-69
2022/03/29 02:52:50;;;;;;;1.27;0.40;;;22.10;99.90;;;;;;5074636;28;20252;-69
2022/03/29 02:55:19;;;;;;;2.97;0.70;;;22.00;99.90;;;;;;5074290;28;20179;-70
2022/03/29 02:57:47;;;;;;;3.50;0.40;;;21.90;99.90;;;;;;5076034;28;20681;-71
2022/03/29 03:00:17;;;;;;;1.13;0.40;;;22.00;99.90;;;;;;5074846;28;20615;-70
2022/03/29 03:02:48;;;;;;;1.50;0.30;;;22.30;99.90;;;;;;5078070;28;20194;-72
2022/03/29 03:05:17;;;;;;;2.03;0.50;;;22.10;99.90;;;;;;5076757;28;20293;-70
2022/03/29 03:07:46;;;;;;;1.07;0.60;;;22.30;99.90;;;;;;5074465;28;20232;-68
2022/03/29 03:10:15;;;;;;;1.90;0.70;;;22.40;99.90;;;;;;5073294;28;20259;-70
2022/03/29 03:12:49;;;;;;;1.80;0.70;;;22.40;99.90;;;;;;5072651;28;20524;-70
2022/03/29 03:15:19;;;;;;;1.80;0.40;;;22.40;99.90;;;;;;5070697;28;20579;-70
2022/03/29 03:17:47;;;;;;;1.07;0.30;;;22.50;99.90;;;;;;5071642;28;20294;-67
2022/03/29 03:20:14;;;;;;;0.83;0.40;;;22.40;99.90;;;;;;5073055;28;20179;-69
2022/03/29 03:22:43;;;;;;;1.43;0.47;;;22.40;99.90;;;;;;5072651;28;20179;-69
2022/03/29 03:25:11;;;;;;;2.03;0.43;;;22.30;99.90;;;;;;5072523;28;20661;-69
2022/03/29 03:27:40;;;;;;;0.70;0.43;;;22.30;99.90;;;;;;5064196;28;20198;-69
2022/03/29 03:30:12;;;;;;;0.30;0.30;;;22.40;99.90;;;;;;5071797;28;20184;-68
2022/03/29 03:32:40;;;;;;;0.87;0.50;;;22.40;99.90;;;;;;5072251;28;20188;-68
2022/03/29 03:35:08;;;;;;;0.93;0.47;;;22.50;99.90;;;;;;5071189;28;20187;-68
2022/03/29 03:37:36;;;;;;;2.83;0.40;;;22.50;99.90;;;;;;5071866;28;20313;-69
2022/03/29 03:40:10;;;;;;;2.30;0.43;;;22.50;99.90;;;;;;5072255;28;20267;-70
2022/03/29 03:42:38;;;;;;;1.20;0.50;;;22.70;99.90;;;;;;5072481;28;20191;-69
2022/03/29 03:45:07;;;;;;;0.50;0.40;;;22.70;99.90;;;;;;5072594;28;20199;-69
2022/03/29 03:47:36;;;;;;;0.80;0.40;;;22.90;99.90;;;;;;5072488;28;20176;-69
2022/03/29 03:50:05;;;;;;;2.87;0.50;;;23.10;99.90;;;;;;5072495;28;20259;-69
2022/03/29 03:52:33;;;;;;;0.83;0.47;;;23.30;99.90;;;;;;5071265;28;20730;-69
2022/03/29 03:55:01;;;;;;;3.43;0.80;;;23.40;99.90;;;;;;5071677;28;20206;-69
2022/03/29 03:57:29;;;;;;;2.33;0.70;;;23.30;99.90;;;;;;5072351;28;20211;-70
2022/03/29 03:59:57;;;;;;;1.03;0.60;;;23.40;99.90;;;;;;5072331;28;20226;-70
2022/03/29 04:02:25;;;;;;;1.00;0.67;;;23.60;99.90;;;;;;5070778;28;20261;-70
2022/03/29 04:04:53;;;;;;;1.83;0.90;;;23.60;99.90;;;;;;5072216;28;20221;-73
2022/03/29 04:07:20;;;;;;;0.90;0.50;;;23.50;99.90;;;;;;5072118;28;20233;-69
2022/03/29 04:09:48;;;;;;;2.20;0.70;;;23.60;99.90;;;;;;5071374;28;20633;-69
2022/03/29 04:12:16;;;;;;;0.77;0.77;;;23.60;99.90;;;;;;5070918;28;20194;-70
2022/03/29 04:14:44;;;;;;;0.87;0.60;;;23.60;99.90;;;;;;5072007;28;20715;-69
2022/03/29 04:17:12;;;;;;;1.20;0.80;;;23.60;99.90;;;;;;5071595;28;20679;-69
2022/03/29 04:19:39;;;;;;;4.60;1.10;;;23.60;99.90;;;;;;5071806;28;20168;-69
2022/03/29 04:22:07;;;;;;;1.47;0.70;;;23.70;99.90;;;;;;5070110;28;20222;-69
2022/03/29 04:24:35;;;;;;;0.97;0.70;;;23.50;99.90;;;;;;5068991;28;20259;-69
2022/03/29 04:27:03;;;;;;;0.80;0.70;;;23.40;99.90;;;;;;5071807;28;20611;-69
2022/03/29 04:29:31;;;;;;;1.53;0.60;;;23.40;99.90;;;;;;5071955;28;20168;-69
2022/03/29 04:31:58;;;;;;;3.67;0.90;;;23.40;99.90;;;;;;5071644;28;20249;-69
2022/03/29 04:34:26;;;;;;;1.83;0.80;;;23.50;99.90;;;;;;5071622;28;20196;-69
2022/03/29 04:36:54;;;;;;;1.53;0.80;;;23.40;99.90;;;;;;5071275;28;20227;-69
2022/03/29 04:39:21;;;;;;;1.23;1.00;;;23.20;99.90;;;;;;5071683;28;20547;-69
2022/03/29 04:41:49;;;;;;;3.17;0.90;;;22.90;99.90;;;;;;5071618;28;20382;-69
2022/03/29 04:44:17;;;;;;;0.90;0.73;;;22.90;99.90;;;;;;5071846;28;20183;-69
2022/03/29 04:46:45;;;;;;;3.63;0.97;;;22.70;99.90;;;;;;5069550;28;20643;-69
2022/03/29 04:49:12;;;;;;;1.53;0.90;;;22.70;99.90;;;;;;5069223;28;20182;-70
2022/03/29 04:51:40;;;;;;;2.27;0.97;;;22.60;99.90;;;;;;5069094;28;20180;-69
2022/03/29 04:54:08;;;;;;;3.13;1.00;;;22.40;99.90;;;;;;5069600;28;20244;-70
2022/03/29 04:56:36;;;;;;;1.83;0.70;;;22.40;99.90;;;;;;5069738;28;20250;-70
2022/03/29 04:59:04;;;;;;;2.07;1.00;;;22.30;99.90;;;;;;5070423;28;20251;-70
2022/03/29 05:01:32;;;;;;;3.97;0.83;;;22.00;99.90;;;;;;5071786;28;20183;-70
2022/03/29 05:04:00;;;;;;;1.70;0.80;;;22.10;99.90;;;;;;5071671;28;20219;-70
2022/03/29 05:06:28;;;;;;;1.33;0.73;;;22.00;99.90;;;;;;5071696;28;20531;-70
2022/03/29 05:08:55;;;;;;;1.50;0.57;;;22.10;99.90;;;;;;5071696;28;20625;-70
2022/03/29 05:11:23;;;;;;;2.73;0.60;;;22.10;99.90;;;;;;5071468;28;20581;-70
2022/03/29 05:13:51;;;;;;;2.63;0.60;;;22.10;99.90;;;;;;5071625;28;20230;-70
2022/03/29 05:16:19;;;;;;;3.00;0.90;;;22.10;99.90;;;;;;5071331;28;20237;-70
2022/03/29 05:18:49;;;;;;;2.57;1.13;;;22.10;99.90;;;;;;5071595;28;20184;-69
2022/03/29 05:21:17;;;;;;;2.87;1.07;;;22.20;99.90;;;;;;5072568;28;20168;-69
2022/03/29 05:23:44;;;;;;;0.90;0.67;;;22.30;99.90;;;;;;5075280;28;20652;-69
2022/03/29 05:26:12;;;;;;;1.00;0.60;;;22.30;99.90;;;;;;5075243;28;20225;-69
2022/03/29 05:28:40;;;;;;;1.70;1.00;;;22.40;99.90;;;;;;5075329;28;20174;-70
2022/03/29 05:31:07;;;;;;;1.57;0.80;;;22.30;99.90;;;;;;5074934;28;20202;-70
2022/03/29 05:33:35;;;;;;;3.17;1.50;;;22.30;99.90;;;;;;5074887;28;20507;-70
2022/03/29 05:36:04;;;;;;;3.50;0.97;;;22.30;99.90;;;;;;5074003;28;20191;-69
2022/03/29 05:38:32;;;;;;;3.40;1.20;;;22.30;99.90;;;;;;5075078;28;20184;-70
2022/03/29 05:40:59;;;;;;;4.13;1.00;;;22.30;99.90;;;;;;5074904;28;20204;-69
2022/03/29 05:43:27;;;;;;;3.10;1.40;;;22.30;99.90;;;;;;5075005;28;20176;-70
2022/03/29 05:48:52;;;;;;;2.97;1.40;;;22.50;99.90;;;;;;5074955;28;20671;-70
2022/03/29 05:51:24;;;;;;;2.57;1.23;;;22.40;99.90;;;;;;5074513;28;20184;-69
2022/03/29 05:53:53;;;;;;;4.67;1.10;;;22.20;99.90;;;;;;5074750;28;20542;-70
2022/03/29 05:56:22;;;;;;;3.07;1.33;;;22.20;99.90;;;;;;5074564;28;20203;-69
2022/03/29 05:58:50;;;;;;;3.67;1.20;;;22.20;99.90;;;;;;5074748;28;20183;-69
2022/03/29 06:01:19;;;;;;;4.40;1.00;;;22.20;99.90;;;;;;5074736;28;20187;-69
2022/03/29 06:03:47;;;;;;;1.20;0.77;;;22.40;99.90;;;;;;5074262;28;20655;-70
2022/03/29 06:06:14;;;;;;;4.90;1.07;;;22.30;99.90;;;;;;5074690;28;20194;-69
2022/03/29 06:08:43;;;;;;;2.33;1.00;;;22.40;99.90;;;;;;5074669;28;20687;-69
2022/03/29 06:11:10;;;;;;;2.30;0.70;;;22.40;99.90;;;;;;5074474;28;20724;-69
2022/03/29 06:13:38;;;;;;;2.90;0.70;;;22.30;99.90;;;;;;5073960;28;20582;-69
2022/03/29 06:16:06;;;;;;;2.80;0.70;;;22.40;99.90;;;;;;5073784;28;20263;-70
2022/03/29 06:18:34;;;;;;;3.80;0.77;;;22.40;99.90;;;;;;5074464;28;20180;-70
2022/03/29 06:21:02;;;;;;;2.43;0.80;;;22.30;99.90;;;;;;5073186;28;20192;-70
2022/03/29 06:23:30;;;;;;;1.17;0.67;;;22.40;99.90;;;;;;5073518;28;20191;-70
2022/03/29 06:25:57;;;;;;;2.77;0.53;;;22.30;99.90;;;;;;5074112;28;20186;-69
2022/03/29 06:28:25;;;;;;;2.50;0.60;;;22.40;99.90;;;;;;5073905;28;20203;-69
2022/03/29 06:30:54;;;;;;;1.37;0.60;;;22.40;99.90;;;;;;5074071;28;20691;-69
2022/03/29 06:33:22;;;;;;;1.50;0.63;;;22.40;99.90;;;;;;5072939;28;20201;-69
2022/03/29 06:35:50;;;;;;;1.23;0.70;;;22.40;99.90;;;;;;5072206;28;20616;-70
2022/03/29 06:38:21;;;;;;;3.30;0.70;;;22.50;99.90;;;;;;5073731;28;20257;-69
2022/03/29 06:40:50;;;;;;;0.90;0.53;;;22.50;99.90;;;;;;5073928;28;20175;-70
2022/03/29 06:43:18;;;;;;;1.13;0.40;;;22.40;99.90;;;;;;5072522;28;20723;-71
2022/03/29 06:45:46;;;;;;;2.63;0.70;;;22.40;99.90;;;;;;5073740;28;20168;-70
2022/03/29 06:48:13;;;;;;;2.07;0.57;;;22.40;99.90;;;;;;5073503;28;20187;-70
2022/03/29 06:50:41;;;;;;;2.47;0.60;;;22.50;99.90;;;;;;5074169;28;20246;-69
2022/03/29 06:53:09;;;;;;;4.77;0.70;;;22.40;99.90;;;;;;5073647;28;20660;-70
2022/03/29 06:55:37;;;;;;;2.23;0.60;;;22.40;99.90;;;;;;5072386;28;20274;-70
2022/03/29 06:58:05;;;;;;;2.40;1.00;;;22.30;99.90;;;;;;5071361;28;20695;-70
2022/03/29 07:00:34;;;;;;;2.10;0.57;;;22.30;99.90;;;;;;5073400;28;20180;-70
2022/03/29 07:03:02;;;;;;;1.80;0.90;;;22.20;99.90;;;;;;5073566;28;20187;-68
2022/03/29 07:05:29;;;;;;;2.23;1.00;;;22.10;99.90;;;;;;5073213;28;20192;-69
2022/03/29 07:07:57;;;;;;;2.50;0.80;;;22.10;99.90;;;;;;5073396;28;20806;-69
2022/03/29 07:13:11;;;;;;;1.33;0.70;;;22.00;99.90;;;;;;5071108;28;20684;-69
2022/03/29 07:15:39;;;;;;;3.27;0.77;;;22.00;99.90;;;;;;5072983;28;20696;-70
2022/03/29 07:18:07;;;;;;;4.50;0.97;;;21.90;99.90;;;;;;5072875;28;20685;-69
2022/03/29 07:20:35;;;;;;;3.37;0.80;;;21.90;99.90;;;;;;5071763;28;20241;-70
2022/03/29 07:23:03;;;;;;;2.60;0.87;;;21.80;99.90;;;;;;5072892;28;20198;-69
2022/03/29 07:25:32;;;;;;;1.53;1.07;;;21.80;99.90;;;;;;5073021;28;20199;-69
2022/03/29 07:28:00;;;;;;;1.13;0.80;;;21.80;99.90;;;;;;5072820;28;20263;-69
2022/03/29 07:30:29;;;;;;;2.87;1.10;;;21.80;99.90;;;;;;5072861;28;20259;-70
2022/03/29 07:32:58;;;;;;;1.93;1.10;;;21.70;99.90;;;;;;5072650;28;20195;-70
2022/03/29 07:35:28;;;;;;;3.23;1.00;;;21.70;99.90;;;;;;5072642;28;20182;-70
2022/03/29 07:37:57;;;;;;;5.37;1.10;;;21.60;99.90;;;;;;5072629;28;20211;-70
2022/03/29 07:40:28;;;;;;;6.23;1.23;;;21.60;99.90;;;;;;5072749;28;20176;-70
2022/03/29 07:42:56;;;;;;;4.17;1.40;;;21.60;99.90;;;;;;5072791;28;20728;-69
2022/03/29 07:45:24;;;;;;;2.57;1.20;;;21.60;99.90;;;;;;5072357;28;20702;-69
2022/03/29 07:47:56;;;;;;;4.90;1.20;;;21.50;99.90;;;;;;5072236;28;20660;-69
2022/03/29 07:50:27;;;;;;;4.53;1.40;;;21.50;99.90;;;;;;5072348;28;20185;-70
2022/03/29 07:52:57;;;;;;;5.40;1.40;;;21.50;99.90;;;;;;5072578;28;20180;-70
2022/03/29 07:55:25;;;;;;;5.93;1.63;;;21.50;99.90;;;;;;5072460;28;20185;-70
2022/03/29 07:57:53;;;;;;;4.70;1.83;;;21.40;99.90;;;;;;5072289;28;20672;-70
2022/03/29 08:00:33;;;;;;;9.10;2.20;;;21.40;99.90;;;;;;5071457;28;20184;-69
2022/03/29 08:03:06;;;;;;;4.33;1.70;;;21.40;99.90;;;;;;5072348;28;20164;-69
2022/03/29 08:05:35;;;;;;;6.33;1.80;;;21.40;99.90;;;;;;5072083;28;20253;-70
2022/03/29 08:08:04;;;;;;;5.17;1.60;;;21.40;99.90;;;;;;5054350;28;20187;-69
2022/03/29 08:10:33;;;;;;;5.33;2.00;;;21.40;99.90;;;;;;5072179;28;20217;-70
2022/03/29 08:13:03;;;;;;;4.47;1.70;;;21.30;99.90;;;;;;5058545;28;20641;-70
2022/03/29 08:15:31;;;;;;;4.23;2.10;;;21.30;99.90;;;;;;5072134;28;20196;-71
2022/03/29 08:18:00;;;;;;;6.23;2.80;;;21.30;99.90;;;;;;5071329;28;20559;-69
2022/03/29 08:20:29;;;;;;;8.57;2.70;;;21.30;99.90;;;;;;5071912;28;20180;-70
2022/03/29 08:23:01;;;;;;;3.67;2.50;;;21.30;99.90;;;;;;5071971;28;20197;-69
2022/03/29 08:25:35;;;;;;;8.57;2.43;;;21.30;99.90;;;;;;5071775;28;20175;-69
2022/03/29 08:28:04;;;;;;;4.47;2.30;;;21.30;99.90;;;;;;5071988;28;20601;-69
2022/03/29 08:30:34;;;;;;;11.00;2.40;;;21.30;99.90;;;;;;5072070;28;20642;-70
2022/03/29 08:33:02;;;;;;;8.53;2.60;;;21.20;99.90;;;;;;5071985;28;20772;-70
2022/03/29 08:35:31;;;;;;;10.93;2.13;;;21.00;99.90;;;;;;5072042;28;20173;-71
2022/03/29 08:38:00;;;;;;;8.30;1.80;;;20.70;99.90;;;;;;5071744;28;20658;-71
2022/03/29 08:40:28;;;;;;;7.70;1.50;;;20.40;99.90;;;;;;5072121;28;20172;-70
2022/03/29 08:42:58;;;;;;;7.20;2.17;;;20.20;99.90;;;;;;5072014;28;20181;-72
2022/03/29 08:45:29;;;;;;;6.13;1.87;;;20.20;99.90;;;;;;5072072;28;20176;-71
2022/03/29 08:47:59;;;;;;;10.87;2.57;;;20.10;99.90;;;;;;5071921;28;20180;-72
2022/03/29 08:50:36;;;;;;;11.97;3.23;;;20.00;99.90;;;;;;5070650;28;20226;-70
2022/03/29 08:53:07;;;;;;;6.03;2.33;;;20.00;99.90;;;;;;5071928;28;20237;-70
2022/03/29 08:55:41;;;;;;;7.00;1.77;;;20.00;99.90;;;;;;5071850;28;20182;-71
2022/03/29 08:58:08;;;;;;;6.00;1.50;;;20.00;99.90;;;;;;5075994;28;20693;-71
2022/03/29 09:00:36;;;;;;;3.37;1.83;;;20.00;99.90;;;;;;5076067;28;20611;-70
2022/03/29 09:03:04;;;;;;;7.93;2.10;;;19.90;99.90;;;;;;5075789;28;20644;-71
2022/03/29 09:05:31;;;;;;;8.50;2.63;;;20.00;99.90;;;;;;5075687;28;20584;-71
2022/03/29 09:08:03;;;;;;;6.80;2.10;;;20.00;99.90;;;;;;5075332;28;20180;-70
2022/03/29 09:10:44;;;;;;;6.50;2.53;;;20.00;99.90;;;;;;5075541;28;20204;-70
2022/03/29 09:13:23;;;;;;;5.80;1.93;;;20.00;99.90;;;;;;5075284;28;20495;-69
2022/03/29 09:15:53;;;;;;;6.20;2.10;;;20.00;99.90;;;;;;5072911;28;20193;-72
2022/03/29 09:18:21;;;;;;;8.50;1.80;;;20.00;99.90;;;;;;5075106;28;20211;-69
2022/03/29 09:21:09;;;;;;;4.50;1.80;;;20.00;99.90;;;;;;5075064;28;20251;-70
2022/03/29 09:23:37;;;;;;;9.10;2.27;;;20.00;99.90;;;;;;5069429;28;20563;-69
2022/03/29 09:26:06;;;;;;;6.80;1.67;;;20.00;99.90;;;;;;5075301;28;20194;-71
2022/03/29 09:28:39;;;;;;;7.87;2.10;;;20.00;99.90;;;;;;5075555;28;20191;-71
2022/03/29 09:31:22;;;;;;;5.83;2.10;;;20.00;99.90;;;;;;5075550;28;20225;-70
2022/03/29 09:33:51;;;;;;;7.70;2.20;;;20.00;99.90;;;;;;5074974;28;20192;-69
2022/03/29 09:36:22;;;;;;;5.23;1.97;;;20.10;99.90;;;;;;5074910;28;20234;-71
2022/03/29 09:38:52;;;;;;;8.87;2.53;;;20.00;99.90;;;;;;5074805;28;20693;-70
2022/03/29 09:41:28;;;;;;;5.27;1.80;;;20.10;99.90;;;;;;5074924;28;20173;-70
2022/03/29 09:44:19;;;;;;;7.80;2.20;;;20.10;99.90;;;;;;5063150;28;20220;-70
2022/03/29 09:47:01;;;;;;;5.87;2.00;;;20.10;99.90;;;;;;5075389;28;20669;-70
2022/03/29 09:49:30;;;;;;;4.57;2.03;;;20.10;99.90;;;;;;5075452;28;20214;-70
2022/03/29 09:52:15;;;;;;;9.33;2.93;;;20.10;99.90;;;;;;5075256;28;20245;-70
2022/03/29 09:55:02;;;;;;;8.47;2.17;;;20.10;99.90;;;;;;5075860;28;20271;-70
2022/03/29 09:57:44;;;;;;;6.83;2.20;;;20.10;99.90;;;;;;5074620;28;20211;-70
2022/03/29 10:00:32;;;;;;;7.10;2.30;;;20.10;99.90;;;;;;5075691;28;20637;-69
2022/03/29 10:03:02;;;;;;;6.37;2.57;;;20.10;99.90;;;;;;5075547;28;20190;-71
2022/03/29 10:05:32;;;;;;;9.47;2.23;;;20.00;99.90;;;;;;5075810;28;20184;-71
2022/03/29 10:10:49;;;;;;;5.53;2.17;;;20.00;99.90;;;;;;5075755;28;20277;-70
2022/03/29 10:13:23;;;;;;;9.57;2.60;;;20.10;99.90;;;;;;5075592;28;20311;-69
2022/03/29 10:15:53;;;;;;;8.03;2.37;;;20.10;99.90;;;;;;5075404;28;20191;-69
2022/03/29 10:18:24;;;;;;;11.03;2.50;;;20.10;99.90;;;;;;5075697;28;20689;-70
2022/03/29 10:20:54;;;;;;;7.77;2.50;;;20.10;99.90;;;;;;5075571;28;20540;-71
2022/03/29 10:23:24;;;;;;;9.37;2.77;;;20.10;99.90;;;;;;5074467;28;20172;-70
2022/03/29 10:25:54;;;;;;;10.40;2.93;;;20.10;99.90;;;;;;5074726;28;20176;-70
2022/03/29 10:28:25;;;;;;;9.50;2.73;;;20.10;99.90;;;;;;5075256;28;20185;-70
2022/03/29 10:30:53;;;;;;;6.13;2.40;;;20.10;99.90;;;;;;5075493;28;20213;-71
2022/03/29 10:33:25;;;;;;;6.20;2.80;;;20.00;99.90;;;;;;5075133;28;20182;-71
2022/03/29 10:36:09;;;;;;;10.93;2.70;;;20.00;99.90;;;;;;5075388;28;20661;-70
2022/03/29 10:38:52;;;;;;;12.10;2.60;;;20.00;99.90;;;;;;5075204;28;20698;-71
2022/03/29 10:41:52;;;;;;;8.70;2.47;;;20.00;99.90;;;;;;5075241;28;20176;-70
2022/03/29 10:44:20;;;;;;;8.97;2.93;;;19.90;99.90;;;;;;5073321;28;20567;-70
2022/03/29 10:46:50;;;;;;;9.37;3.37;;;19.90;99.90;;;;;;5075148;28;20192;-70
2022/03/29 10:49:22;;;;;;;13.23;2.83;;;20.00;99.90;;;;;;5075287;28;20179;-71
2022/03/29 10:51:53;;;;;;;8.10;3.37;;;20.00;99.90;;;;;;5074822;28;20585;-71
2022/03/29 10:54:38;;;;;;;10.27;4.10;;;20.00;99.90;;;;;;5074775;28;20191;-70
2022/03/29 10:57:08;;;;;;;9.63;3.57;;;19.90;99.90;;;;;;5075028;28;20218;-70
2022/03/29 10:59:37;;;;;;;9.70;4.00;;;19.90;99.90;;;;;;5073047;28;20548;-70
2022/03/29 11:02:20;;;;;;;7.27;3.27;;;19.90;99.90;;;;;;5074979;28;20176;-71
2022/03/29 11:05:13;;;;;;;12.67;3.10;;;19.80;99.90;;;;;;5074705;28;20195;-70
2022/03/29 11:07:53;;;;;;;5.83;2.70;;;19.80;99.90;;;;;;5075055;28;20649;-69
2022/03/29 11:10:37;;;;;;;11.00;3.63;;;19.70;99.90;;;;;;5074705;28;20267;-70
2022/03/29 11:13:37;;;;;;;8.70;3.90;;;19.60;99.90;;;;;;5070258;28;20180;-70
2022/03/29 11:16:25;;;;;;;11.77;3.70;;;19.60;99.90;;;;;;5073271;28;20196;-70
2022/03/29 11:18:53;;;;;;;6.83;2.87;;;19.50;99.90;;;;;;5073884;28;20183;-70
2022/03/29 11:21:40;;;;;;;7.73;3.37;;;19.60;99.90;;;;;;5074636;28;20177;-68
2022/03/29 11:24:10;;;;;;;10.47;3.47;;;19.50;99.90;;;;;;5074277;28;20513;-69
2022/03/29 11:26:52;;;;;;;11.20;3.07;;;19.50;99.90;;;;;;5074329;28;20184;-69
2022/03/29 11:29:21;;;;;;;8.07;2.47;;;19.40;99.90;;;;;;5073663;28;20180;-68
2022/03/29 11:31:50;;;;;;;12.17;2.97;;;19.40;99.90;;;;;;5074178;28;20180;-70
2022/03/29 11:34:18;;;;;;;10.47;2.60;;;19.40;99.90;;;;;;5072579;28;20207;-69
2022/03/29 11:36:46;;;;;;;6.80;2.37;;;19.40;99.90;;;;;;5074077;28;20208;-69
2022/03/29 11:39:28;;;;;;;5.57;2.20;;;19.40;99.90;;;;;;5074223;28;20185;-70
2022/03/29 11:41:56;;;;;;;14.10;3.33;;;19.50;99.90;;;;;;5073790;28;20743;-70
2022/03/29 11:44:26;;;;;;;11.07;3.00;;;19.50;99.90;;;;;;5072508;28;20210;-70
2022/03/29 11:46:58;;;;;;;8.23;2.80;;;19.60;99.90;;;;;;5072315;28;20622;-71
2022/03/29 11:49:27;;;;;;;15.03;3.40;;;19.60;99.90;;;;;;5073599;28;20610;-69
2022/03/29 11:52:06;;;;;;;6.97;2.77;;;19.70;99.90;;;;;;5073954;28;20643;-71
2022/03/29 11:54:43;;;;;;;8.47;3.00;;;19.70;99.90;;;;;;5073839;28;20188;-71
2022/03/29 11:57:31;;;;;;;8.03;3.00;;;19.70;99.90;;;;;;5073452;28;20218;-69
2022/03/29 11:59:59;;;;;;;6.67;2.83;;;19.70;99.90;;;;;;5073407;28;20653;-70
2022/03/29 12:02:28;;;;;;;8.87;3.63;;;19.70;99.90;;;;;;5072717;28;20582;-70
2022/03/29 12:04:56;;;;;;;10.73;3.20;;;19.70;99.90;;;;;;5073649;28;20200;-69
2022/03/29 12:07:44;;;;;;;13.53;3.33;;;19.70;99.90;;;;;;5073314;28;20262;-70
2022/03/29 12:10:15;;;;;;;8.37;2.80;;;19.70;99.90;;;;;;5073903;28;20168;-72
2022/03/29 12:12:51;;;;;;;12.43;3.37;;;19.70;99.90;;;;;;5073690;28;20701;-71
2022/03/29 12:15:22;;;;;;;7.57;2.83;;;19.70;99.90;;;;;;5073257;28;20257;-71
2022/03/29 12:20:48;;;;;;;10.83;3.00;;;19.80;99.90;;;;;;5063046;28;20247;-71
2022/03/29 12:23:26;;;;;;;11.97;4.10;;;19.80;99.90;;;;;;5073289;28;20192;-70
2022/03/29 12:25:54;;;;;;;8.63;2.90;;;19.90;99.90;;;;;;5073059;28;20258;-70
2022/03/29 12:28:23;;;;;;;8.50;2.80;;;19.90;99.90;;;;;;5073334;28;20195;-69
2022/03/29 12:30:54;;;;;;;11.30;3.87;;;19.90;99.90;;;;;;5072449;28;20630;-70
2022/03/29 12:33:23;;;;;;;8.60;3.10;;;19.80;99.90;;;;;;5073284;28;20183;-69
2022/03/29 12:36:13;;;;;;;12.70;2.90;;;19.80;99.90;;;;;;5072910;28;20184;-70
2022/03/29 12:38:54;;;;;;;9.83;2.43;;;19.70;99.90;;;;;;5072059;28;20285;-70
2022/03/29 12:41:52;;;;;;;13.07;2.50;;;19.70;99.90;;;;;;5073660;28;20189;-70
2022/03/29 12:44:44;;;;;;;10.33;2.60;;;19.70;99.90;;;;;;5072968;28;20213;-70
2022/03/29 12:47:12;;;;;;;8.73;2.57;;;19.60;99.90;;;;;;5073191;28;20176;-70
2022/03/29 12:49:41;;;;;;;9.13;2.40;;;19.50;99.90;;;;;;5073406;28;20199;-70
2022/03/29 12:52:11;;;;;;;11.07;2.57;;;19.50;99.90;;;;;;5073167;28;20176;-70
2022/03/29 12:54:44;;;;;;;16.03;2.20;;;19.50;99.90;;;;;;5073531;28;20200;-70
2022/03/29 12:57:16;;;;;;;6.60;1.83;;;19.40;99.90;;;;;;5072968;28;20576;-70
2022/03/29 12:59:49;;;;;;;9.83;2.00;;;19.40;99.90;;;;;;5073188;28;20234;-70
2022/03/29 13:02:24;;;;;;;7.13;1.60;;;19.30;99.90;;;;;;5072608;28;20227;-69
2022/03/29 13:05:02;;;;;;;7.67;1.90;;;19.40;99.90;;;;;;5073370;28;20247;-70
2022/03/29 13:07:50;;;;;;;7.47;2.00;;;19.30;99.90;;;;;;5072533;28;20234;-70
2022/03/29 13:10:38;;;;;;;7.07;1.60;;;19.20;99.90;;;;;;5073375;28;20173;-69
2022/03/29 13:13:10;;;;;;;6.77;1.63;;;19.20;99.90;;;;;;5072514;28;20532;-69
2022/03/29 13:15:56;;;;;;;10.13;1.57;;;19.20;99.90;;;;;;5072758;28;20186;-70